Gas Wisdom — H9CC — position and weather

sailwx.info

Track history (hours):
 
Tides and Currents Weather Stations Pressure Air Temp Water Temp Dewpoint Dewpoint Depression Visibility Wind Speed Wind Dir Waves Ship Positions

Gas Wisdom

Last reported at 2017-Aug-15 20:06 UTC. Time now 2017-Aug-18 08:52 UTC.
Position N 01°17' E 103°21'.

Length 225 m; draft 8.3 m.

Type: Tanker. MMSI: 373435000.

Date/timePositionNaut miles runAvg speedWind from/ knotsBaromVisibWave heightAir tempDewpointWater temp
2017-Aug-15 20:06N 01°17' E 103°21'213.4
2017-Aug-15 19:57N 01°16' E 103°23'613.6
2017-Aug-15 19:31N 01°13' E 103°28'714.0
2017-Aug-15 19:01N 01°12' E 103°35'611.6
2017-Aug-15 18:30N 01°10' E 103°41'2 3.8
2017-Aug-15 18:00N 01°09' E 103°42'2 4.9
2017-Aug-15 17:30N 01°08' E 103°45'4 7.3
2017-Aug-15 17:00N 01°10' E 103°48'5 9.5
2017-Aug-15 16:30N 01°12' E 103°52'4 8.6
2017-Aug-15 16:00N 01°14' E 103°56'5 9.7
2017-Aug-15 15:30N 01°15' E 104°01'610.3
2017-Aug-15 14:58N 01°17' E 104°06'610.0
2017-Aug-15 14:24N 01°17' E 104°12'  
2017-Aug-11 05:15N 22°41' E 113°41'2 0.7
2017-Aug-11 02:49N 22°43' E 113°41'5 8.6
2017-Aug-11 02:13N 22°47' E 113°38'310.2
2017-Aug-11 01:56N 22°49' E 113°36'4 9.3
2017-Aug-11 01:30N 22°53' E 113°34'4 8.0
2017-Aug-11 01:00N 22°57' E 113°33'0 0.4
2017-Aug-11 00:25N 22°57' E 113°33'0 0.0
2017-Aug-10 23:55N 22°57' E 113°33'0 0.0
2017-Aug-10 23:19N 22°57' E 113°33'0 0.0
2017-Aug-10 22:24N 22°57' E 113°33'0 0.0
2017-Aug-10 22:00N 22°57' E 113°33'0 0.0
2017-Aug-10 21:30N 22°57' E 113°33'0 0.0
2017-Aug-10 21:00N 22°57' E 113°33'0 0.0
2017-Aug-10 20:18N 22°57' E 113°33'0 0.0
2017-Aug-10 16:00N 22°57' E 113°33'0 0.0
2017-Aug-10 15:24N 22°57' E 113°33'0 0.0
2017-Aug-10 14:54N 22°57' E 113°33'0 0.0
2017-Aug-10 13:42N 22°57' E 113°33'0 0.0
2017-Aug-10 13:24N 22°57' E 113°33'0 0.0
2017-Aug-10 12:42N 22°57' E 113°33'0 0.0
2017-Aug-10 12:24N 22°57' E 113°33'0 0.0
2017-Aug-10 10:06N 22°57' E 113°33'0 0.0
2017-Aug-10 09:48N 22°57' E 113°33'0 0.0
2017-Aug-10 09:30N 22°57' E 113°33'0 0.0
2017-Aug-10 09:00N 22°57' E 113°33'0 0.0
2017-Aug-10 08:18N 22°57' E 113°33'0 0.0
2017-Aug-10 07:42N 22°57' E 113°33'0 0.0
2017-Aug-10 07:30N 22°57' E 113°33'0 0.0
2017-Aug-10 05:53N 22°57' E 113°33'0 0.0
2017-Aug-10 05:29N 22°57' E 113°33'0 0.0
2017-Aug-10 04:05N 22°57' E 113°33'0 0.0
2017-Aug-10 03:35N 22°57' E 113°33'0 0.0
2017-Aug-10 03:11N 22°57' E 113°33'0 0.0
2017-Aug-10 02:47N 22°57' E 113°33'0 0.0
2017-Aug-10 02:23N 22°57' E 113°33'0 0.0
2017-Aug-10 01:47N 22°57' E 113°33'0 0.0
2017-Aug-10 01:23N 22°57' E 113°33'0 0.0
2017-Aug-10 00:59N 22°57' E 113°33'0 0.0
2017-Aug-10 00:29N 22°57' E 113°33'0 0.0
2017-Aug-09 23:11N 22°57' E 113°33'0 0.0
2017-Aug-09 21:41N 22°57' E 113°33'0 0.0
2017-Aug-09 21:05N 22°57' E 113°33'0 0.0
2017-Aug-09 20:59N 22°57' E 113°33'0 0.0
2017-Aug-09 20:11N 22°57' E 113°33'0 0.0
2017-Aug-09 18:47N 22°57' E 113°33'0 0.0
2017-Aug-09 18:23N 22°57' E 113°33'0 0.0
2017-Aug-09 16:53N 22°57' E 113°33'0 0.0
2017-Aug-09 16:23N 22°57' E 113°33'0 0.0
2017-Aug-09 15:41N 22°57' E 113°33'0 0.0
2017-Aug-09 14:41N 22°57' E 113°33'0 0.0
2017-Aug-09 14:29N 22°57' E 113°33'0 0.0
2017-Aug-09 13:41N 22°57' E 113°33'0 0.0
2017-Aug-09 13:17N 22°57' E 113°33'0 0.0
2017-Aug-09 12:59N 22°57' E 113°33'0 0.0
2017-Aug-09 12:17N 22°57' E 113°33'0 0.0
2017-Aug-09 11:59N 22°57' E 113°33'0 0.0
2017-Aug-09 11:11N 22°57' E 113°33'0 0.0
2017-Aug-09 10:47N 22°57' E 113°33'0 0.0
2017-Aug-09 10:23N 22°57' E 113°33'0 0.0
2017-Aug-09 09:59N 22°57' E 113°33'0 0.0
2017-Aug-09 09:29N 22°57' E 113°33'0 0.0
2017-Aug-09 08:59N 22°57' E 113°33'0 0.0
2017-Aug-09 08:29N 22°57' E 113°33'0 0.0
2017-Aug-09 07:53N 22°57' E 113°33'0 0.0
2017-Aug-09 07:29N 22°57' E 113°33'0 0.0
2017-Aug-09 07:00N 22°57' E 113°33'0 0.5
2017-Aug-09 06:30N 22°57' E 113°33'3 6.2
2017-Aug-09 06:00N 22°54' E 113°34'5 9.0
2017-Aug-09 05:30N 22°50' E 113°35'5 8.8
2017-Aug-09 04:59N 22°46' E 113°38'0 0.2
2017-Aug-09 03:31N 22°46' E 113°39'0 0.6
2017-Aug-09 03:29N 22°46' E 113°39'3 7.1
2017-Aug-09 03:00N 22°43' E 113°40'201 5.9
2017-Aug-07 17:08N 19°22' E 113°28'214.0
2017-Aug-07 17:00N 19°21' E 113°28'  
Track history (hours):
 
Tides and Currents Weather Stations Pressure Air Temp Water Temp Dewpoint Dewpoint Depression Visibility Wind Speed Wind Dir Waves Ship Positions

Gas Wisdom

Last reported at 2017-Aug-15 20:06 UTC. Time now 2017-Aug-18 08:52 UTC.
Position N 01°17' E 103°21'.

Length 225 m; draft 8.3 m.

Type: Tanker. MMSI: 373435000.

Date/timePositionNaut miles runAvg speedWind from/ knotsBaromVisibWave heightAir tempDewpointWater temp
2017-Aug-15 20:06N 01°17' E 103°21'213.4
2017-Aug-15 19:57N 01°16' E 103°23'613.6
2017-Aug-15 19:31N 01°13' E 103°28'714.0
2017-Aug-15 19:01N 01°12' E 103°35'611.6
2017-Aug-15 18:30N 01°10' E 103°41'2 3.8
2017-Aug-15 18:00N 01°09' E 103°42'2 4.9
2017-Aug-15 17:30N 01°08' E 103°45'4 7.3
2017-Aug-15 17:00N 01°10' E 103°48'5 9.5
2017-Aug-15 16:30N 01°12' E 103°52'4 8.6
2017-Aug-15 16:00N 01°14' E 103°56'5 9.7
2017-Aug-15 15:30N 01°15' E 104°01'610.3
2017-Aug-15 14:58N 01°17' E 104°06'610.0
2017-Aug-15 14:24N 01°17' E 104°12'  
2017-Aug-11 05:15N 22°41' E 113°41'2 0.7
2017-Aug-11 02:49N 22°43' E 113°41'5 8.6
2017-Aug-11 02:13N 22°47' E 113°38'310.2
2017-Aug-11 01:56N 22°49' E 113°36'4 9.3
2017-Aug-11 01:30N 22°53' E 113°34'4 8.0
2017-Aug-11 01:00N 22°57' E 113°33'0 0.4
2017-Aug-11 00:25N 22°57' E 113°33'0 0.0
2017-Aug-10 23:55N 22°57' E 113°33'0 0.0
2017-Aug-10 23:19N 22°57' E 113°33'0 0.0
2017-Aug-10 22:24N 22°57' E 113°33'0 0.0
2017-Aug-10 22:00N 22°57' E 113°33'0 0.0
2017-Aug-10 21:30N 22°57' E 113°33'0 0.0
2017-Aug-10 21:00N 22°57' E 113°33'0 0.0
2017-Aug-10 20:18N 22°57' E 113°33'0 0.0
2017-Aug-10 16:00N 22°57' E 113°33'0 0.0
2017-Aug-10 15:24N 22°57' E 113°33'0 0.0
2017-Aug-10 14:54N 22°57' E 113°33'0 0.0
2017-Aug-10 13:42N 22°57' E 113°33'0 0.0
2017-Aug-10 13:24N 22°57' E 113°33'0 0.0
2017-Aug-10 12:42N 22°57' E 113°33'0 0.0
2017-Aug-10 12:24N 22°57' E 113°33'0 0.0
2017-Aug-10 10:06N 22°57' E 113°33'0 0.0
2017-Aug-10 09:48N 22°57' E 113°33'0 0.0
2017-Aug-10 09:30N 22°57' E 113°33'0 0.0
2017-Aug-10 09:00N 22°57' E 113°33'0 0.0
2017-Aug-10 08:18N 22°57' E 113°33'0 0.0
2017-Aug-10 07:42N 22°57' E 113°33'0 0.0
2017-Aug-10 07:30N 22°57' E 113°33'0 0.0
2017-Aug-10 05:53N 22°57' E 113°33'0 0.0
2017-Aug-10 05:29N 22°57' E 113°33'0 0.0
2017-Aug-10 04:05N 22°57' E 113°33'0 0.0
2017-Aug-10 03:35N 22°57' E 113°33'0 0.0
2017-Aug-10 03:11N 22°57' E 113°33'0 0.0
2017-Aug-10 02:47N 22°57' E 113°33'0 0.0
2017-Aug-10 02:23N 22°57' E 113°33'0 0.0
2017-Aug-10 01:47N 22°57' E 113°33'0 0.0
2017-Aug-10 01:23N 22°57' E 113°33'0 0.0
2017-Aug-10 00:59N 22°57' E 113°33'0 0.0
2017-Aug-10 00:29N 22°57' E 113°33'0 0.0
2017-Aug-09 23:11N 22°57' E 113°33'0 0.0
2017-Aug-09 21:41N 22°57' E 113°33'0 0.0
2017-Aug-09 21:05N 22°57' E 113°33'0 0.0
2017-Aug-09 20:59N 22°57' E 113°33'0 0.0
2017-Aug-09 20:11N 22°57' E 113°33'0 0.0
2017-Aug-09 18:47N 22°57' E 113°33'0 0.0
2017-Aug-09 18:23N 22°57' E 113°33'0 0.0
2017-Aug-09 16:53N 22°57' E 113°33'0 0.0
2017-Aug-09 16:23N 22°57' E 113°33'0 0.0
2017-Aug-09 15:41N 22°57' E 113°33'0 0.0
2017-Aug-09 14:41N 22°57' E 113°33'0 0.0
2017-Aug-09 14:29N 22°57' E 113°33'0 0.0
2017-Aug-09 13:41N 22°57' E 113°33'0 0.0
2017-Aug-09 13:17N 22°57' E 113°33'0 0.0
2017-Aug-09 12:59N 22°57' E 113°33'0 0.0
2017-Aug-09 12:17N 22°57' E 113°33'0 0.0
2017-Aug-09 11:59N 22°57' E 113°33'0 0.0
2017-Aug-09 11:11N 22°57' E 113°33'0 0.0
2017-Aug-09 10:47N 22°57' E 113°33'0 0.0
2017-Aug-09 10:23N 22°57' E 113°33'0 0.0
2017-Aug-09 09:59N 22°57' E 113°33'0 0.0
2017-Aug-09 09:29N 22°57' E 113°33'0 0.0
2017-Aug-09 08:59N 22°57' E 113°33'0 0.0
2017-Aug-09 08:29N 22°57' E 113°33'0 0.0
2017-Aug-09 07:53N 22°57' E 113°33'0 0.0
2017-Aug-09 07:29N 22°57' E 113°33'0 0.0
2017-Aug-09 07:00N 22°57' E 113°33'0 0.5
2017-Aug-09 06:30N 22°57' E 113°33'3 6.2
2017-Aug-09 06:00N 22°54' E 113°34'5 9.0
2017-Aug-09 05:30N 22°50' E 113°35'5 8.8
2017-Aug-09 04:59N 22°46' E 113°38'0 0.2
2017-Aug-09 03:31N 22°46' E 113°39'0 0.6
2017-Aug-09 03:29N 22°46' E 113°39'3 7.1
2017-Aug-09 03:00N 22°43' E 113°40'201 5.9
2017-Aug-07 17:08N 19°22' E 113°28'214.0
2017-Aug-07 17:00N 19°21' E 113°28'  

Dump ship's entire track history